KOTM/OTM METAR and TAF weather

Enter ICAO airport designator
Station Type Date Time Source
KOTM METAR 2019/02/16 16:53 UTC NOAA

KOTM 161653Z AUTO 06006KT 10SM CLR M11/M14 A3009 RMK AO2 SLP207 T11061144


Station Type Date Time Source
KOTM Decoded METAR 2019/02/16 16:53 UTC NOAA

OTTUMWA INDUSTRIAL AIRPORT, IA, United States (KOTM) 41-06N 092-27W 256M
Feb 16, 2019 - 11:53 AM EST / 2019.02.16 1653 UTC
Wind: from the ENE (060 degrees) at 7 MPH (6 KT):0
Visibility: 10 mile(s):0
Sky conditions: clear
Temperature: 12.9 F (-10.6 C)
Windchill: 3 F (-16 C):1
Dew Point: 6.1 F (-14.4 C)
Relative Humidity: 73%
Pressure (altimeter): 30.09 in. Hg (1018 hPa)
ob: KOTM 161653Z AUTO 06006KT 10SM CLR M11/M14 A3009 RMK AO2 SLP207 T11061144
cycle: 17

Station Type Date Time Source
KOTM TAF 2019/02/16 18:30 UTC NOAA

TAF KOTM 161729Z 1618/1718 07005KT P6SM FEW250
FM170400 09009KT 3SM -SN OVC020
FM170700 07010KT 1SM -SN OVC010


Example: see airport list